sensor_id;sensor_type;location;lat;lon;timestamp;P1;durP1;ratioP1;P2;durP2;ratioP2
56599;SDS011;51832;48.152;11.530;2023-02-13T00:04:42;15.65;;;7.32;;
56599;SDS011;51832;48.152;11.530;2023-02-13T00:09:43;17.88;;;8.65;;
56599;SDS011;51832;48.152;11.530;2023-02-13T00:14:43;18.08;;;8.27;;
56599;SDS011;51832;48.152;11.530;2023-02-13T00:19:44;18.27;;;7.93;;
56599;SDS011;51832;48.152;11.530;2023-02-13T00:24:44;22.63;;;8.98;;
56599;SDS011;51832;48.152;11.530;2023-02-13T00:29:44;19.58;;;9.00;;
56599;SDS011;51832;48.152;11.530;2023-02-13T00:34:45;22.13;;;8.93;;
56599;SDS011;51832;48.152;11.530;2023-02-13T00:39:45;21.95;;;9.85;;
56599;SDS011;51832;48.152;11.530;2023-02-13T00:44:45;20.13;;;8.82;;
56599;SDS011;51832;48.152;11.530;2023-02-13T00:49:46;23.05;;;9.07;;
56599;SDS011;51832;48.152;11.530;2023-02-13T00:54:46;22.45;;;9.63;;
56599;SDS011;51832;48.152;11.530;2023-02-13T00:59:47;19.88;;;9.43;;
56599;SDS011;51832;48.152;11.530;2023-02-13T01:04:47;19.08;;;8.20;;
56599;SDS011;51832;48.152;11.530;2023-02-13T01:09:48;19.77;;;9.00;;
56599;SDS011;51832;48.152;11.530;2023-02-13T01:14:48;22.17;;;10.43;;
56599;SDS011;51832;48.152;11.530;2023-02-13T01:19:49;20.67;;;8.43;;
56599;SDS011;51832;48.152;11.530;2023-02-13T01:24:50;19.33;;;9.15;;
56599;SDS011;51832;48.152;11.530;2023-02-13T01:29:50;22.88;;;9.55;;
56599;SDS011;51832;48.152;11.530;2023-02-13T01:34:51;23.67;;;9.38;;
56599;SDS011;51832;48.152;11.530;2023-02-13T01:39:51;21.17;;;9.50;;
56599;SDS011;51832;48.152;11.530;2023-02-13T01:55:10;20.70;;;9.65;;
56599;SDS011;51832;48.152;11.530;2023-02-13T02:00:13;22.23;;;9.52;;
56599;SDS011;51832;48.152;11.530;2023-02-13T02:10:17;22.92;;;9.20;;
56599;SDS011;51832;48.152;11.530;2023-02-13T02:15:19;21.30;;;9.05;;
56599;SDS011;51832;48.152;11.530;2023-02-13T02:36:01;26.80;;;9.63;;
56599;SDS011;51832;48.152;11.530;2023-02-13T02:46:56;22.45;;;9.40;;
56599;SDS011;51832;48.152;11.530;2023-02-13T02:52:19;18.33;;;8.55;;
56599;SDS011;51832;48.152;11.530;2023-02-13T02:57:28;18.00;;;8.68;;
56599;SDS011;51832;48.152;11.530;2023-02-13T03:02:50;18.27;;;8.93;;
56599;SDS011;51832;48.152;11.530;2023-02-13T03:08:09;19.35;;;8.63;;
56599;SDS011;51832;48.152;11.530;2023-02-13T03:13:14;18.42;;;8.90;;
56599;SDS011;51832;48.152;11.530;2023-02-13T03:18:22;19.23;;;8.75;;
56599;SDS011;51832;48.152;11.530;2023-02-13T03:23:57;24.33;;;8.95;;
56599;SDS011;51832;48.152;11.530;2023-02-13T03:29:12;19.15;;;8.77;;
56599;SDS011;51832;48.152;11.530;2023-02-13T03:34:38;23.92;;;9.57;;
56599;SDS011;51832;48.152;11.530;2023-02-13T03:40:09;20.42;;;9.15;;
56599;SDS011;51832;48.152;11.530;2023-02-13T03:45:23;19.17;;;9.15;;
56599;SDS011;51832;48.152;11.530;2023-02-13T03:50:46;22.35;;;9.63;;
56599;SDS011;51832;48.152;11.530;2023-02-13T03:55:47;22.05;;;9.48;;
56599;SDS011;51832;48.152;11.530;2023-02-13T04:01:07;19.92;;;8.88;;
56599;SDS011;51832;48.152;11.530;2023-02-13T04:06:15;18.35;;;8.35;;
56599;SDS011;51832;48.152;11.530;2023-02-13T04:21:55;17.88;;;8.30;;
56599;SDS011;51832;48.152;11.530;2023-02-13T04:26:57;18.48;;;8.52;;
56599;SDS011;51832;48.152;11.530;2023-02-13T04:31:58;16.88;;;8.60;;
56599;SDS011;51832;48.152;11.530;2023-02-13T04:36:58;13.27;;;7.63;;
56599;SDS011;51832;48.152;11.530;2023-02-13T04:41:59;16.42;;;8.10;;
56599;SDS011;51832;48.152;11.530;2023-02-13T04:46:59;12.30;;;5.93;;
56599;SDS011;51832;48.152;11.530;2023-02-13T04:52:00;23.60;;;9.52;;
56599;SDS011;51832;48.152;11.530;2023-02-13T04:57:00;13.55;;;7.30;;
56599;SDS011;51832;48.152;11.530;2023-02-13T05:02:00;13.05;;;7.53;;
56599;SDS011;51832;48.152;11.530;2023-02-13T05:07:01;14.98;;;7.65;;
56599;SDS011;51832;48.152;11.530;2023-02-13T05:12:01;13.63;;;8.52;;
56599;SDS011;51832;48.152;11.530;2023-02-13T05:17:02;16.13;;;8.02;;
56599;SDS011;51832;48.152;11.530;2023-02-13T05:22:02;16.13;;;8.48;;
56599;SDS011;51832;48.152;11.530;2023-02-13T05:27:22;15.43;;;8.35;;
56599;SDS011;51832;48.152;11.530;2023-02-13T05:32:22;18.08;;;8.43;;
56599;SDS011;51832;48.152;11.530;2023-02-13T05:37:23;21.67;;;10.05;;
56599;SDS011;51832;48.152;11.530;2023-02-13T05:42:23;19.50;;;9.57;;
56599;SDS011;51832;48.152;11.530;2023-02-13T05:47:24;17.13;;;9.38;;
56599;SDS011;51832;48.152;11.530;2023-02-13T05:52:24;17.80;;;10.00;;
56599;SDS011;51832;48.152;11.530;2023-02-13T05:57:25;16.25;;;9.25;;
56599;SDS011;51832;48.152;11.530;2023-02-13T06:02:25;18.90;;;9.05;;
56599;SDS011;51832;48.152;11.530;2023-02-13T06:07:26;17.52;;;8.90;;
56599;SDS011;51832;48.152;11.530;2023-02-13T06:12:26;18.00;;;8.90;;
56599;SDS011;51832;48.152;11.530;2023-02-13T06:17:27;21.30;;;10.57;;
56599;SDS011;51832;48.152;11.530;2023-02-13T06:22:27;22.10;;;10.48;;
56599;SDS011;51832;48.152;11.530;2023-02-13T06:27:28;23.02;;;11.10;;
56599;SDS011;51832;48.152;11.530;2023-02-13T06:32:28;22.50;;;11.27;;
56599;SDS011;51832;48.152;11.530;2023-02-13T06:37:28;24.58;;;10.85;;
56599;SDS011;51832;48.152;11.530;2023-02-13T06:42:29;21.23;;;10.55;;
56599;SDS011;51832;48.152;11.530;2023-02-13T06:47:29;25.42;;;11.43;;
56599;SDS011;51832;48.152;11.530;2023-02-13T06:52:30;24.42;;;11.35;;
56599;SDS011;51832;48.152;11.530;2023-02-13T06:57:30;23.90;;;11.73;;
56599;SDS011;51832;48.152;11.530;2023-02-13T07:02:32;26.30;;;11.43;;
56599;SDS011;51832;48.152;11.530;2023-02-13T07:07:33;24.60;;;11.05;;
56599;SDS011;51832;48.152;11.530;2023-02-13T07:12:35;25.38;;;11.43;;
56599;SDS011;51832;48.152;11.530;2023-02-13T07:17:36;24.00;;;10.85;;
56599;SDS011;51832;48.152;11.530;2023-02-13T07:22:36;24.17;;;11.32;;
56599;SDS011;51832;48.152;11.530;2023-02-13T07:27:37;23.95;;;11.15;;
56599;SDS011;51832;48.152;11.530;2023-02-13T07:32:37;22.20;;;10.32;;
56599;SDS011;51832;48.152;11.530;2023-02-13T07:37:38;26.05;;;10.82;;
56599;SDS011;51832;48.152;11.530;2023-02-13T07:42:38;33.17;;;14.50;;
56599;SDS011;51832;48.152;11.530;2023-02-13T07:47:38;23.60;;;11.30;;
56599;SDS011;51832;48.152;11.530;2023-02-13T07:52:39;22.92;;;10.95;;
56599;SDS011;51832;48.152;11.530;2023-02-13T07:57:39;28.95;;;12.18;;
56599;SDS011;51832;48.152;11.530;2023-02-13T08:02:40;26.63;;;11.87;;
56599;SDS011;51832;48.152;11.530;2023-02-13T08:07:40;24.98;;;11.75;;
56599;SDS011;51832;48.152;11.530;2023-02-13T08:12:40;26.42;;;10.68;;
56599;SDS011;51832;48.152;11.530;2023-02-13T08:17:41;26.67;;;12.68;;
56599;SDS011;51832;48.152;11.530;2023-02-13T08:22:41;26.60;;;12.20;;
56599;SDS011;51832;48.152;11.530;2023-02-13T08:27:42;25.90;;;11.88;;
56599;SDS011;51832;48.152;11.530;2023-02-13T08:32:42;23.70;;;11.77;;
56599;SDS011;51832;48.152;11.530;2023-02-13T08:37:43;24.90;;;11.95;;
56599;SDS011;51832;48.152;11.530;2023-02-13T08:42:43;26.67;;;12.97;;
56599;SDS011;51832;48.152;11.530;2023-02-13T08:47:43;26.50;;;12.05;;
56599;SDS011;51832;48.152;11.530;2023-02-13T08:52:44;25.45;;;12.13;;
56599;SDS011;51832;48.152;11.530;2023-02-13T08:57:44;27.37;;;11.97;;
56599;SDS011;51832;48.152;11.530;2023-02-13T09:02:44;27.98;;;12.77;;
56599;SDS011;51832;48.152;11.530;2023-02-13T09:07:45;30.43;;;13.23;;
56599;SDS011;51832;48.152;11.530;2023-02-13T09:12:51;30.90;;;12.90;;
56599;SDS011;51832;48.152;11.530;2023-02-13T09:17:52;32.28;;;13.90;;
56599;SDS011;51832;48.152;11.530;2023-02-13T09:22:53;26.27;;;13.07;;
56599;SDS011;51832;48.152;11.530;2023-02-13T09:27:55;28.23;;;12.50;;
56599;SDS011;51832;48.152;11.530;2023-02-13T09:32:55;28.65;;;13.65;;
56599;SDS011;51832;48.152;11.530;2023-02-13T09:37:56;24.92;;;13.10;;
56599;SDS011;51832;48.152;11.530;2023-02-13T09:48:07;25.30;;;12.10;;
56599;SDS011;51832;48.152;11.530;2023-02-13T09:53:19;25.67;;;12.20;;
56599;SDS011;51832;48.152;11.530;2023-02-13T09:58:40;28.20;;;12.95;;
56599;SDS011;51832;48.152;11.530;2023-02-13T10:03:44;31.10;;;13.68;;
56599;SDS011;51832;48.152;11.530;2023-02-13T10:19:33;25.67;;;13.80;;
56599;SDS011;51832;48.152;11.530;2023-02-13T10:24:40;26.07;;;12.90;;
56599;SDS011;51832;48.152;11.530;2023-02-13T10:29:47;25.98;;;12.48;;
56599;SDS011;51832;48.152;11.530;2023-02-13T10:35:18;22.83;;;12.02;;
56599;SDS011;51832;48.152;11.530;2023-02-13T10:40:19;25.92;;;12.43;;
56599;SDS011;51832;48.152;11.530;2023-02-13T11:06:30;33.10;;;15.43;;
56599;SDS011;51832;48.152;11.530;2023-02-13T11:11:35;27.35;;;13.00;;
56599;SDS011;51832;48.152;11.530;2023-02-13T11:16:38;29.05;;;13.48;;
56599;SDS011;51832;48.152;11.530;2023-02-13T11:21:42;24.13;;;12.13;;
56599;SDS011;51832;48.152;11.530;2023-02-13T11:26:44;31.30;;;14.02;;
56599;SDS011;51832;48.152;11.530;2023-02-13T11:32:01;23.90;;;12.07;;
56599;SDS011;51832;48.152;11.530;2023-02-13T11:37:27;27.27;;;13.68;;
56599;SDS011;51832;48.152;11.530;2023-02-13T11:42:30;25.88;;;11.95;;
56599;SDS011;51832;48.152;11.530;2023-02-13T11:47:35;25.05;;;13.07;;
56599;SDS011;51832;48.152;11.530;2023-02-13T11:52:38;27.70;;;13.73;;
56599;SDS011;51832;48.152;11.530;2023-02-13T11:57:38;28.52;;;13.48;;
56599;SDS011;51832;48.152;11.530;2023-02-13T12:02:46;27.30;;;12.55;;
56599;SDS011;51832;48.152;11.530;2023-02-13T12:07:49;24.52;;;12.27;;
56599;SDS011;51832;48.152;11.530;2023-02-13T12:12:57;29.20;;;12.20;;
56599;SDS011;51832;48.152;11.530;2023-02-13T12:28:21;29.75;;;13.85;;
56599;SDS011;51832;48.152;11.530;2023-02-13T12:33:50;27.13;;;14.00;;
56599;SDS011;51832;48.152;11.530;2023-02-13T12:39:24;29.45;;;13.70;;
56599;SDS011;51832;48.152;11.530;2023-02-13T13:06:11;25.38;;;13.02;;
56599;SDS011;51832;48.152;11.530;2023-02-13T13:11:41;29.25;;;14.38;;
56599;SDS011;51832;48.152;11.530;2023-02-13T13:27:32;25.63;;;13.68;;
56599;SDS011;51832;48.152;11.530;2023-02-13T13:32:39;25.00;;;12.82;;
56599;SDS011;51832;48.152;11.530;2023-02-13T13:37:43;27.70;;;12.57;;
56599;SDS011;51832;48.152;11.530;2023-02-13T13:42:49;26.40;;;12.63;;
56599;SDS011;51832;48.152;11.530;2023-02-13T13:53:17;25.67;;;11.65;;
56599;SDS011;51832;48.152;11.530;2023-02-13T14:13:39;22.75;;;11.20;;
56599;SDS011;51832;48.152;11.530;2023-02-13T14:18:44;21.40;;;10.65;;
56599;SDS011;51832;48.152;11.530;2023-02-13T14:23:46;18.88;;;10.10;;
56599;SDS011;51832;48.152;11.530;2023-02-13T14:34:02;21.98;;;10.35;;
56599;SDS011;51832;48.152;11.530;2023-02-13T14:44:33;17.15;;;10.05;;
56599;SDS011;51832;48.152;11.530;2023-02-13T14:49:42;19.95;;;11.00;;
56599;SDS011;51832;48.152;11.530;2023-02-13T14:54:48;18.60;;;10.52;;
56599;SDS011;51832;48.152;11.530;2023-02-13T15:00:54;21.35;;;11.07;;
56599;SDS011;51832;48.152;11.530;2023-02-13T15:05:41;18.10;;;9.38;;
56599;SDS011;51832;48.152;11.530;2023-02-13T15:10:53;19.38;;;10.95;;
56599;SDS011;51832;48.152;11.530;2023-02-13T15:15:56;23.25;;;10.98;;
56599;SDS011;51832;48.152;11.530;2023-02-13T15:20:59;18.45;;;10.20;;
56599;SDS011;51832;48.152;11.530;2023-02-13T15:26:02;17.27;;;10.50;;
56599;SDS011;51832;48.152;11.530;2023-02-13T15:31:16;18.15;;;10.63;;
56599;SDS011;51832;48.152;11.530;2023-02-13T15:36:22;18.00;;;9.75;;
56599;SDS011;51832;48.152;11.530;2023-02-13T15:41:26;22.10;;;10.75;;
56599;SDS011;51832;48.152;11.530;2023-02-13T15:46:33;21.50;;;10.52;;
56599;SDS011;51832;48.152;11.530;2023-02-13T15:51:35;19.52;;;11.05;;
56599;SDS011;51832;48.152;11.530;2023-02-13T15:56:35;18.40;;;10.20;;
56599;SDS011;51832;48.152;11.530;2023-02-13T16:01:37;20.83;;;11.40;;
56599;SDS011;51832;48.152;11.530;2023-02-13T16:06:43;22.60;;;11.35;;
56599;SDS011;51832;48.152;11.530;2023-02-13T16:11:45;22.42;;;11.00;;
56599;SDS011;51832;48.152;11.530;2023-02-13T16:22:46;23.65;;;11.55;;
56599;SDS011;51832;48.152;11.530;2023-02-13T16:27:31;21.58;;;11.23;;
56599;SDS011;51832;48.152;11.530;2023-02-13T16:32:34;22.60;;;11.75;;
56599;SDS011;51832;48.152;11.530;2023-02-13T16:37:46;22.58;;;12.88;;
56599;SDS011;51832;48.152;11.530;2023-02-13T16:42:50;22.52;;;11.48;;
56599;SDS011;51832;48.152;11.530;2023-02-13T16:48:11;24.67;;;11.45;;
56599;SDS011;51832;48.152;11.530;2023-02-13T16:53:14;20.30;;;10.77;;
56599;SDS011;51832;48.152;11.530;2023-02-13T16:58:15;22.98;;;11.70;;
56599;SDS011;51832;48.152;11.530;2023-02-13T17:03:16;24.48;;;12.65;;
56599;SDS011;51832;48.152;11.530;2023-02-13T17:08:17;26.67;;;12.65;;
56599;SDS011;51832;48.152;11.530;2023-02-13T17:13:23;23.47;;;12.13;;
56599;SDS011;51832;48.152;11.530;2023-02-13T17:18:25;24.10;;;11.90;;
56599;SDS011;51832;48.152;11.530;2023-02-13T17:23:26;27.88;;;12.85;;
56599;SDS011;51832;48.152;11.530;2023-02-13T17:28:27;23.25;;;11.82;;
56599;SDS011;51832;48.152;11.530;2023-02-13T17:33:29;31.05;;;13.75;;
56599;SDS011;51832;48.152;11.530;2023-02-13T17:38:33;26.48;;;13.82;;
56599;SDS011;51832;48.152;11.530;2023-02-13T17:43:33;28.20;;;13.50;;
56599;SDS011;51832;48.152;11.530;2023-02-13T17:48:34;27.35;;;13.13;;
56599;SDS011;51832;48.152;11.530;2023-02-13T17:53:34;27.42;;;13.70;;
56599;SDS011;51832;48.152;11.530;2023-02-13T17:58:35;25.40;;;13.48;;
56599;SDS011;51832;48.152;11.530;2023-02-13T18:03:35;27.15;;;14.55;;
56599;SDS011;51832;48.152;11.530;2023-02-13T18:08:36;31.65;;;15.55;;
56599;SDS011;51832;48.152;11.530;2023-02-13T18:13:37;27.95;;;15.05;;
56599;SDS011;51832;48.152;11.530;2023-02-13T18:18:39;27.77;;;14.67;;
56599;SDS011;51832;48.152;11.530;2023-02-13T18:23:40;28.98;;;14.85;;
56599;SDS011;51832;48.152;11.530;2023-02-13T18:28:40;30.70;;;16.33;;
56599;SDS011;51832;48.152;11.530;2023-02-13T18:33:41;30.80;;;14.57;;
56599;SDS011;51832;48.152;11.530;2023-02-13T18:38:41;27.73;;;13.70;;
56599;SDS011;51832;48.152;11.530;2023-02-13T18:43:41;33.13;;;16.40;;
56599;SDS011;51832;48.152;11.530;2023-02-13T18:48:42;32.17;;;15.10;;
56599;SDS011;51832;48.152;11.530;2023-02-13T18:53:42;32.63;;;16.38;;
56599;SDS011;51832;48.152;11.530;2023-02-13T18:58:43;33.00;;;15.93;;
56599;SDS011;51832;48.152;11.530;2023-02-13T19:03:46;31.25;;;14.80;;
56599;SDS011;51832;48.152;11.530;2023-02-13T19:08:48;32.63;;;15.80;;
56599;SDS011;51832;48.152;11.530;2023-02-13T19:13:52;35.35;;;15.80;;
56599;SDS011;51832;48.152;11.530;2023-02-13T19:18:54;32.35;;;15.68;;
56599;SDS011;51832;48.152;11.530;2023-02-13T19:23:55;33.90;;;15.73;;
56599;SDS011;51832;48.152;11.530;2023-02-13T19:28:56;32.33;;;16.02;;
56599;SDS011;51832;48.152;11.530;2023-02-13T19:33:57;31.90;;;14.13;;
56599;SDS011;51832;48.152;11.530;2023-02-13T19:39:02;30.00;;;14.82;;
56599;SDS011;51832;48.152;11.530;2023-02-13T19:44:03;34.33;;;15.73;;
56599;SDS011;51832;48.152;11.530;2023-02-13T19:49:04;31.55;;;14.73;;
56599;SDS011;51832;48.152;11.530;2023-02-13T19:54:05;33.20;;;14.85;;
56599;SDS011;51832;48.152;11.530;2023-02-13T19:59:07;36.65;;;16.25;;
56599;SDS011;51832;48.152;11.530;2023-02-13T20:04:12;36.83;;;16.70;;
56599;SDS011;51832;48.152;11.530;2023-02-13T20:09:12;35.10;;;15.00;;
56599;SDS011;51832;48.152;11.530;2023-02-13T20:14:13;37.13;;;16.00;;
56599;SDS011;51832;48.152;11.530;2023-02-13T20:19:14;37.92;;;15.82;;
56599;SDS011;51832;48.152;11.530;2023-02-13T20:24:14;38.05;;;16.58;;
56599;SDS011;51832;48.152;11.530;2023-02-13T20:29:15;41.17;;;19.52;;
56599;SDS011;51832;48.152;11.530;2023-02-13T20:34:15;33.47;;;16.50;;
56599;SDS011;51832;48.152;11.530;2023-02-13T20:39:16;35.40;;;16.20;;
56599;SDS011;51832;48.152;11.530;2023-02-13T20:44:17;30.42;;;14.90;;
56599;SDS011;51832;48.152;11.530;2023-02-13T20:49:21;29.48;;;14.98;;
56599;SDS011;51832;48.152;11.530;2023-02-13T20:54:22;32.95;;;14.52;;
56599;SDS011;51832;48.152;11.530;2023-02-13T20:59:22;29.00;;;14.18;;
56599;SDS011;51832;48.152;11.530;2023-02-13T21:04:23;29.23;;;13.30;;
56599;SDS011;51832;48.152;11.530;2023-02-13T21:09:23;33.42;;;15.55;;
56599;SDS011;51832;48.152;11.530;2023-02-13T21:14:24;28.10;;;13.68;;
56599;SDS011;51832;48.152;11.530;2023-02-13T21:19:25;31.48;;;14.98;;
56599;SDS011;51832;48.152;11.530;2023-02-13T21:24:25;33.95;;;15.40;;
56599;SDS011;51832;48.152;11.530;2023-02-13T21:29:26;30.25;;;14.80;;
56599;SDS011;51832;48.152;11.530;2023-02-13T21:34:26;31.60;;;14.30;;
56599;SDS011;51832;48.152;11.530;2023-02-13T21:39:27;29.48;;;13.32;;
56599;SDS011;51832;48.152;11.530;2023-02-13T21:44:27;25.15;;;13.07;;
56599;SDS011;51832;48.152;11.530;2023-02-13T21:49:27;32.97;;;12.85;;
56599;SDS011;51832;48.152;11.530;2023-02-13T21:54:28;25.27;;;12.95;;
56599;SDS011;51832;48.152;11.530;2023-02-13T21:59:28;29.50;;;13.95;;
56599;SDS011;51832;48.152;11.530;2023-02-13T22:04:29;30.17;;;13.73;;
56599;SDS011;51832;48.152;11.530;2023-02-13T22:09:30;30.50;;;13.48;;
56599;SDS011;51832;48.152;11.530;2023-02-13T22:14:30;24.83;;;12.25;;
56599;SDS011;51832;48.152;11.530;2023-02-13T22:19:31;28.92;;;14.07;;
56599;SDS011;51832;48.152;11.530;2023-02-13T22:24:31;31.33;;;14.27;;
56599;SDS011;51832;48.152;11.530;2023-02-13T22:29:31;26.92;;;13.27;;
56599;SDS011;51832;48.152;11.530;2023-02-13T22:34:32;27.33;;;14.27;;
56599;SDS011;51832;48.152;11.530;2023-02-13T22:39:32;30.17;;;13.15;;
56599;SDS011;51832;48.152;11.530;2023-02-13T22:44:33;28.38;;;13.10;;
56599;SDS011;51832;48.152;11.530;2023-02-13T22:49:33;28.30;;;12.30;;
56599;SDS011;51832;48.152;11.530;2023-02-13T22:54:35;25.50;;;12.85;;
56599;SDS011;51832;48.152;11.530;2023-02-13T22:59:36;26.95;;;12.88;;
56599;SDS011;51832;48.152;11.530;2023-02-13T23:04:36;28.77;;;12.85;;
56599;SDS011;51832;48.152;11.530;2023-02-13T23:09:37;23.33;;;12.57;;
56599;SDS011;51832;48.152;11.530;2023-02-13T23:14:37;24.40;;;12.30;;
56599;SDS011;51832;48.152;11.530;2023-02-13T23:19:37;26.00;;;12.85;;
56599;SDS011;51832;48.152;11.530;2023-02-13T23:24:38;22.10;;;12.07;;
56599;SDS011;51832;48.152;11.530;2023-02-13T23:29:38;25.13;;;12.82;;
56599;SDS011;51832;48.152;11.530;2023-02-13T23:34:39;24.88;;;12.48;;
56599;SDS011;51832;48.152;11.530;2023-02-13T23:39:39;23.65;;;12.77;;
56599;SDS011;51832;48.152;11.530;2023-02-13T23:44:39;24.02;;;12.40;;
56599;SDS011;51832;48.152;11.530;2023-02-13T23:49:40;24.67;;;12.68;;
56599;SDS011;51832;48.152;11.530;2023-02-13T23:54:40;23.63;;;12.52;;
56599;SDS011;51832;48.152;11.530;2023-02-13T23:59:41;28.30;;;12.70;;
